Time;durP1;ratioP1;P1;durP2;ratioP2;P2;SDS_P1;SDS_P2;PMS_P1;PMS_P2;Temp;Humidity;BMP_temperature;BMP_pressure;BME280_temperature;BME280_humidity;BME280_pressure;Samples;Min_cycle;Max_cycle;Signal;HPM_P1;HPM_P2
2024/03/02 00:01:11;;;;;;;23.42;14.13;;;;;;;4.33;100.00;95548.44;4996984;28;20404;-70
2024/03/02 00:03:38;;;;;;;23.45;14.75;;;;;;;4.28;100.00;95552.22;4999590;28;20049;-70
2024/03/02 00:06:04;;;;;;;22.15;13.75;;;;;;;4.22;100.00;95549.00;4995106;28;20034;-70
2024/03/02 00:08:30;;;;;;;20.77;13.73;;;;;;;4.23;100.00;95557.91;5001404;28;20397;-70
2024/03/02 00:10:59;;;;;;;18.05;12.77;;;;;;;4.25;100.00;95560.25;4999791;28;20477;-70
2024/03/02 00:13:25;;;;;;;22.70;13.48;;;;;;;4.25;100.00;95557.56;5015102;28;20045;-70
2024/03/02 00:15:51;;;;;;;23.63;14.20;;;;;;;4.21;100.00;95558.28;5005489;28;20042;-71
2024/03/02 00:18:20;;;;;;;20.10;13.90;;;;;;;4.10;100.00;95559.16;4997924;28;20141;-70
2024/03/02 00:20:46;;;;;;;17.75;11.38;;;;;;;4.00;100.00;95555.09;5001960;28;20030;-70
2024/03/02 00:23:15;;;;;;;22.23;13.13;;;;;;;3.94;100.00;95551.06;4997113;28;20088;-70
2024/03/02 00:25:44;;;;;;;21.58;14.20;;;;;;;3.91;100.00;95547.13;5001080;28;20081;-70
2024/03/02 00:28:23;;;;;;;23.43;14.60;;;;;;;3.67;100.00;95547.31;4994096;28;20037;-69
2024/03/02 00:30:55;;;;;;;26.58;15.77;;;;;;;3.53;100.00;95539.63;5000619;28;20042;-69
2024/03/02 00:33:21;;;;;;;24.95;15.10;;;;;;;3.45;100.00;95546.78;4998859;28;20042;-70
2024/03/02 00:35:47;;;;;;;25.20;16.50;;;;;;;3.56;100.00;95544.34;4997352;28;20383;-69
2024/03/02 00:38:15;;;;;;;27.63;17.38;;;;;;;3.67;100.00;95534.56;4996697;28;20042;-70
2024/03/02 00:40:44;;;;;;;29.77;18.35;;;;;;;3.59;100.00;95544.44;4999584;28;20042;-70
2024/03/02 00:43:47;;;;;;;33.65;19.02;;;;;;;3.46;100.00;95545.66;4995765;28;20057;-70
2024/03/02 00:46:14;;;;;;;31.40;18.70;;;;;;;3.43;100.00;95543.66;4985088;28;20076;-71
2024/03/02 00:48:50;;;;;;;30.60;18.90;;;;;;;3.46;100.00;95548.38;5000764;28;20500;-70
2024/03/02 00:51:15;;;;;;;37.95;20.63;;;;;;;3.48;100.00;95543.41;4995864;28;20136;-70
2024/03/02 00:53:41;;;;;;;36.05;19.77;;;;;;;3.57;100.00;95535.88;5001066;28;20141;-70
2024/03/02 00:56:10;;;;;;;35.13;20.42;;;;;;;3.56;100.00;95533.53;4988287;28;20087;-69
2024/03/02 00:58:35;;;;;;;33.47;20.33;;;;;;;3.56;100.00;95538.94;4991890;28;20046;-70
2024/03/02 01:01:01;;;;;;;37.97;21.05;;;;;;;3.57;100.00;95545.94;4998175;28;20045;-69
2024/03/02 01:03:26;;;;;;;35.33;20.48;;;;;;;3.55;100.00;95548.97;4996410;28;20045;-70
2024/03/02 01:05:51;;;;;;;36.05;20.63;;;;;;;3.63;100.00;95548.00;4997702;28;20493;-70
2024/03/02 01:08:17;;;;;;;33.47;20.38;;;;;;;3.71;100.00;95559.81;4994683;28;20156;-69
2024/03/02 01:10:43;;;;;;;32.17;19.55;;;;;;;3.75;100.00;95557.19;5004632;28;20056;-69
2024/03/02 01:13:08;;;;;;;29.80;18.60;;;;;;;3.78;100.00;95559.19;5001426;28;20046;-70
2024/03/02 01:15:33;;;;;;;28.17;18.58;;;;;;;3.81;100.00;95561.97;5000784;28;20046;-71
2024/03/02 01:17:59;;;;;;;28.63;18.30;;;;;;;3.77;100.00;95563.03;4999669;28;20436;-71
2024/03/02 01:20:24;;;;;;;28.27;16.67;;;;;;;3.74;100.00;95571.88;4992104;28;20050;-70
2024/03/02 01:22:50;;;;;;;26.83;16.52;;;;;;;4.00;100.00;95579.47;5000677;28;20188;-70
2024/03/02 01:25:16;;;;;;;28.17;16.73;;;;;;;3.98;100.00;95579.81;4995474;28;20501;-70
2024/03/02 01:27:41;;;;;;;28.50;17.05;;;;;;;3.97;100.00;95577.44;5000857;28;20084;-69
2024/03/02 01:30:07;;;;;;;27.92;17.20;;;;;;;3.95;100.00;95583.22;4998532;28;20034;-73
2024/03/02 01:32:32;;;;;;;26.63;16.35;;;;;;;3.87;100.00;95580.69;5002982;28;20108;-71
2024/03/02 01:34:58;;;;;;;27.83;17.00;;;;;;;4.02;100.00;95583.38;4992910;28;20129;-71
2024/03/02 01:37:23;;;;;;;27.17;16.80;;;;;;;4.21;100.00;95581.88;4996302;28;20168;-72
2024/03/02 01:39:49;;;;;;;28.48;16.55;;;;;;;4.24;100.00;95577.69;4999854;28;20053;-72
2024/03/02 01:42:14;;;;;;;27.42;16.10;;;;;;;4.37;100.00;95576.41;4983255;28;20489;-72
2024/03/02 01:44:40;;;;;;;29.08;16.83;;;;;;;4.44;100.00;95571.16;5013542;28;20048;-71
2024/03/02 01:47:05;;;;;;;27.02;15.82;;;;;;;4.45;100.00;95575.44;4996592;28;20034;-72
2024/03/02 01:49:32;;;;;;;25.42;14.57;;;;;;;4.36;100.00;95583.00;5004454;28;20073;-72
2024/03/02 01:51:58;;;;;;;25.48;15.73;;;;;;;4.37;100.00;95584.56;5000986;28;20037;-71
2024/03/02 01:54:23;;;;;;;25.83;16.65;;;;;;;4.43;100.00;95575.03;5004214;28;20040;-72
2024/03/02 01:56:49;;;;;;;27.75;16.42;;;;;;;4.48;100.00;95582.84;4986528;28;20041;-71
2024/03/02 01:59:14;;;;;;;26.42;17.25;;;;;;;4.54;100.00;95578.75;4999424;28;20065;-72
2024/03/02 02:01:39;;;;;;;29.17;16.40;;;;;;;4.53;100.00;95582.56;5007925;28;20047;-72
2024/03/02 02:04:06;;;;;;;25.60;15.48;;;;;;;4.41;100.00;95569.13;5001634;28;20509;-71
2024/03/02 02:06:32;;;;;;;26.67;16.85;;;;;;;3.82;100.00;95574.41;5004599;28;20053;-71
2024/03/02 02:08:57;;;;;;;30.15;16.77;;;;;;;3.69;100.00;95572.94;5018934;28;20428;-71
2024/03/02 02:11:23;;;;;;;29.33;16.67;;;;;;;3.65;100.00;95574.75;5003220;28;20120;-71
2024/03/02 02:13:48;;;;;;;28.00;16.33;;;;;;;3.70;100.00;95577.19;5010553;28;20044;-71
2024/03/02 02:16:14;;;;;;;26.58;16.23;;;;;;;3.81;100.00;95578.22;5004173;28;20488;-71
2024/03/02 02:18:39;;;;;;;28.13;17.42;;;;;;;3.89;100.00;95573.00;5004199;28;20042;-70
2024/03/02 02:21:04;;;;;;;28.05;17.70;;;;;;;3.66;100.00;95565.50;5000737;28;20515;-71
2024/03/02 02:23:30;;;;;;;33.80;19.00;;;;;;;3.50;100.00;95564.72;5005129;28;20045;-71
2024/03/02 02:25:55;;;;;;;33.22;19.73;;;;;;;3.40;100.00;95566.00;5009661;28;20042;-71
2024/03/02 02:28:20;;;;;;;39.17;20.23;;;;;;;3.38;100.00;95560.13;5000625;28;21052;-71
2024/03/02 02:30:46;;;;;;;35.58;19.92;;;;;;;3.37;100.00;95559.38;5003375;28;20053;-71
2024/03/02 02:33:11;;;;;;;35.17;19.70;;;;;;;3.39;100.00;95565.22;5000770;28;20053;-70
2024/03/02 02:35:37;;;;;;;39.70;20.77;;;;;;;3.33;100.00;95563.91;5020219;28;20072;-71
2024/03/02 02:38:03;;;;;;;37.22;20.95;;;;;;;3.32;100.00;95559.63;5001340;28;20392;-70
2024/03/02 02:40:31;;;;;;;37.75;21.23;;;;;;;3.31;100.00;95566.16;5002073;28;20061;-71
2024/03/02 02:42:58;;;;;;;35.08;20.83;;;;;;;3.32;100.00;95569.66;4989081;28;20050;-71
2024/03/02 02:45:24;;;;;;;38.97;21.40;;;;;;;3.34;100.00;95573.59;5000013;28;20752;-72
2024/03/02 02:47:49;;;;;;;35.60;21.45;;;;;;;3.30;100.00;95577.34;5004435;28;20053;-71
2024/03/02 02:50:15;;;;;;;36.53;20.25;;;;;;;3.36;100.00;95582.13;4997926;28;20097;-70
2024/03/02 02:52:42;;;;;;;37.05;20.17;;;;;;;3.51;100.00;95579.81;5002925;28;20053;-71
2024/03/02 02:55:09;;;;;;;34.10;19.98;;;;;;;3.53;100.00;95580.22;4995187;28;20385;-71
2024/03/02 02:57:37;;;;;;;33.47;18.95;;;;;;;3.43;100.00;95578.84;5008170;28;20440;-71
2024/03/02 03:00:09;;;;;;;31.33;18.67;;;;;;;3.32;100.00;95573.16;5007849;28;20069;-71
2024/03/02 03:02:36;;;;;;;29.92;17.73;;;;;;;3.24;100.00;95577.59;5004750;28;20084;-71
2024/03/02 03:05:01;;;;;;;33.33;19.08;;;;;;;3.12;100.00;95580.34;5008479;28;20077;-70
2024/03/02 03:07:26;;;;;;;31.90;19.45;;;;;;;3.02;100.00;95576.22;5013570;28;20048;-71
2024/03/02 03:09:52;;;;;;;32.15;18.77;;;;;;;2.94;100.00;95587.97;5013077;28;20133;-71
2024/03/02 03:12:17;;;;;;;35.08;19.90;;;;;;;3.00;100.00;95581.19;5004114;28;20034;-71
2024/03/02 03:14:43;;;;;;;31.92;19.10;;;;;;;3.02;100.00;95578.13;5008908;28;20050;-71
2024/03/02 03:17:08;;;;;;;34.20;19.75;;;;;;;2.97;100.00;95575.69;4999842;28;20048;-69
2024/03/02 03:19:33;;;;;;;34.65;19.45;;;;;;;2.98;100.00;95580.75;5006591;28;20056;-70
2024/03/02 03:21:59;;;;;;;37.15;20.30;;;;;;;2.95;100.00;95577.94;5010586;28;20062;-71
2024/03/02 03:24:25;;;;;;;35.35;19.35;;;;;;;2.93;100.00;95586.41;5005466;28;20038;-70
2024/03/02 03:26:50;;;;;;;31.55;18.33;;;;;;;2.93;100.00;95583.69;5003951;28;20057;-71
2024/03/02 03:29:15;;;;;;;32.05;19.17;;;;;;;2.98;100.00;95579.97;4998619;28;20406;-70
2024/03/02 03:31:41;;;;;;;31.40;17.95;;;;;;;3.08;100.00;95584.09;5000742;28;20050;-70
2024/03/02 03:34:06;;;;;;;32.00;18.30;;;;;;;3.06;100.00;95582.53;4998700;28;20100;-70
2024/03/02 03:36:31;;;;;;;33.20;19.40;;;;;;;2.95;100.00;95586.06;5003272;28;20041;-71
2024/03/02 03:38:57;;;;;;;32.40;18.88;;;;;;;2.86;100.00;95592.41;4994577;28;20397;-70
2024/03/02 03:41:23;;;;;;;31.67;19.10;;;;;;;2.68;100.00;95597.31;4997894;28;20456;-70
2024/03/02 03:43:48;;;;;;;33.03;17.67;;;;;;;2.61;100.00;95596.31;5002767;28;20044;-71
2024/03/02 03:46:14;;;;;;;30.90;18.13;;;;;;;2.59;100.00;95593.97;4998912;28;20049;-72
2024/03/02 03:48:39;;;;;;;34.92;19.08;;;;;;;2.68;100.00;95591.91;5003366;28;20132;-71
2024/03/02 03:51:05;;;;;;;31.55;18.27;;;;;;;2.75;100.00;95596.72;4998470;28;20050;-71
2024/03/02 03:53:30;;;;;;;29.13;17.42;;;;;;;2.93;100.00;95601.84;5004919;28;20038;-72
2024/03/02 03:55:56;;;;;;;32.55;18.30;;;;;;;3.02;100.00;95589.75;5004683;28;20042;-72
2024/03/02 03:58:21;;;;;;;30.90;18.50;;;;;;;3.01;100.00;95588.19;5002271;28;20529;-72
2024/03/02 04:00:46;;;;;;;28.80;18.42;;;;;;;3.00;100.00;95596.63;5002379;28;20448;-72
2024/03/02 04:03:18;;;;;;;35.38;19.15;;;;;;;3.10;100.00;95596.16;4997998;28;20074;-72
2024/03/02 04:05:46;;;;;;;29.20;17.67;;;;;;;3.32;100.00;95596.72;4987084;28;20053;-72
2024/03/02 04:08:11;;;;;;;27.17;15.88;;;;;;;3.38;100.00;95596.09;5002693;28;20107;-72
2024/03/02 04:10:37;;;;;;;27.20;16.70;;;;;;;3.20;100.00;95592.16;5003902;28;20392;-71
2024/03/02 04:13:03;;;;;;;28.08;16.77;;;;;;;2.68;100.00;95588.41;5002315;28;20045;-71
2024/03/02 04:15:29;;;;;;;29.08;17.63;;;;;;;2.37;100.00;95584.41;5011287;28;20415;-71
2024/03/02 04:17:55;;;;;;;33.20;19.27;;;;;;;2.30;100.00;95586.91;5000180;28;20053;-71
2024/03/02 04:20:20;;;;;;;33.08;19.23;;;;;;;2.39;100.00;95578.69;4995014;28;22180;-70
2024/03/02 04:22:46;;;;;;;44.83;22.15;;;;;;;2.43;100.00;95572.25;4999810;28;20041;-71
2024/03/02 04:25:11;;;;;;;41.95;22.60;;;;;;;2.43;100.00;95582.25;5002691;28;20042;-71
2024/03/02 04:27:36;;;;;;;42.53;22.85;;;;;;;2.51;100.00;95583.28;5005081;28;20427;-71
2024/03/02 04:30:03;;;;;;;41.30;23.00;;;;;;;2.74;100.00;95575.41;4998347;28;20049;-71
2024/03/02 04:32:29;;;;;;;43.67;22.58;;;;;;;2.76;100.00;95578.59;5000871;28;20045;-71
2024/03/02 04:34:54;;;;;;;47.00;25.10;;;;;;;2.78;100.00;95587.16;5000828;28;20041;-70
2024/03/02 04:37:20;;;;;;;43.45;22.85;;;;;;;2.97;100.00;95591.91;4994906;28;20038;-70
2024/03/02 04:39:45;;;;;;;40.50;22.60;;;;;;;3.18;100.00;95584.38;5000918;28;20072;-70
2024/03/02 04:42:11;;;;;;;40.42;22.80;;;;;;;3.27;100.00;95592.34;4994825;28;20045;-71
2024/03/02 04:44:38;;;;;;;39.38;21.25;;;;;;;3.41;100.00;95587.31;4999378;28;20050;-71
2024/03/02 04:47:04;;;;;;;42.33;21.38;;;;;;;3.43;100.00;95587.75;4995265;28;20061;-71
2024/03/02 04:49:30;;;;;;;38.15;21.40;;;;;;;3.50;100.00;95599.91;5001734;28;20042;-71
2024/03/02 04:51:56;;;;;;;38.38;21.83;;;;;;;3.37;100.00;95597.25;5000602;28;20034;-71
2024/03/02 04:54:22;;;;;;;38.53;21.95;;;;;;;3.21;100.00;95597.22;4995850;28;20524;-71
2024/03/02 04:56:50;;;;;;;44.55;21.58;;;;;;;3.05;100.00;95604.50;5000913;28;20065;-71
2024/03/02 04:59:17;;;;;;;36.05;19.55;;;;;;;3.22;100.00;95606.13;4996246;28;20037;-71
2024/03/02 05:01:43;;;;;;;61.47;28.55;;;;;;;3.31;100.00;95605.97;5015432;28;20050;-71
2024/03/02 05:04:11;;;;;;;60.78;27.70;;;;;;;3.32;100.00;95605.63;4993488;28;20044;-71
2024/03/02 05:06:40;;;;;;;57.58;27.60;;;;;;;3.32;100.00;95610.25;5000000;28;20899;-71
2024/03/02 05:09:09;;;;;;;54.93;27.03;;;;;;;3.32;100.00;95615.69;4989957;28;20034;-71
2024/03/02 05:14:04;;;;;;;57.78;27.40;;;;;;;3.32;100.00;95611.03;5004885;28;20042;-70
2024/03/02 05:16:33;;;;;;;60.53;27.50;;;;;;;3.36;100.00;95614.63;5008178;28;20244;-71
2024/03/02 05:18:58;;;;;;;49.28;24.63;;;;;;;3.45;100.00;95611.75;5006942;28;20061;-70
2024/03/02 05:21:23;;;;;;;50.40;26.30;;;;;;;3.53;100.00;95610.81;5003828;28;20045;-71
2024/03/02 05:23:49;;;;;;;51.85;25.23;;;;;;;3.68;100.00;95613.91;5014831;28;20191;-70
2024/03/02 05:26:14;;;;;;;44.28;24.08;;;;;;;3.79;100.00;95612.22;5017812;28;20129;-71
2024/03/02 05:28:39;;;;;;;52.00;26.20;;;;;;;3.78;100.00;95608.75;5008325;28;20518;-71
2024/03/02 05:31:05;;;;;;;49.67;24.48;;;;;;;3.78;100.00;95607.94;5003680;28;20038;-71
2024/03/02 05:33:32;;;;;;;46.97;24.88;;;;;;;3.88;100.00;95612.06;5003759;28;20342;-72
2024/03/02 05:35:58;;;;;;;46.80;23.42;;;;;;;3.76;100.00;95616.44;5003369;28;20041;-72
2024/03/02 05:38:24;;;;;;;49.35;24.85;;;;;;;3.54;100.00;95608.91;5013242;28;20251;-71
2024/03/02 05:40:49;;;;;;;52.92;25.90;;;;;;;3.54;100.00;95614.31;5017515;28;20045;-71
2024/03/02 05:43:14;;;;;;;50.22;24.90;;;;;;;3.47;100.00;95611.41;5013953;28;20167;-71
2024/03/02 05:45:40;;;;;;;52.97;25.77;;;;;;;3.46;100.00;95618.75;5003031;28;20080;-71
2024/03/02 05:48:07;;;;;;;51.35;26.17;;;;;;;3.40;100.00;95606.59;5003326;28;20041;-71
2024/03/02 05:50:33;;;;;;;56.92;28.38;;;;;;;3.37;100.00;95607.31;5006381;28;20068;-72
2024/03/02 05:52:58;;;;;;;59.25;29.15;;;;;;;3.43;100.00;95605.91;5016051;28;20480;-70
2024/03/02 05:55:24;;;;;;;64.47;29.40;;;;;;;3.41;100.00;95611.66;5002295;28;20054;-70
2024/03/02 05:58:17;;;;;;;68.82;30.48;;;;;;;3.48;100.00;95616.47;5006259;28;20049;-69
2024/03/02 06:00:35;;;;;;;76.93;34.00;;;;;;;3.50;100.00;95614.22;5027268;28;20045;-70
2024/03/02 06:03:00;;;;;;;85.85;33.28;;;;;;;3.47;100.00;95616.81;5026973;28;20052;-73
2024/03/02 06:05:26;;;;;;;77.68;31.65;;;;;;;3.47;100.00;95614.91;5011039;28;20050;-71
2024/03/02 06:07:51;;;;;;;117.63;34.25;;;;;;;3.39;100.00;95610.44;5008861;28;20100;-73
2024/03/02 06:10:17;;;;;;;164.02;33.63;;;;;;;3.35;100.00;95614.97;4999842;28;20042;-72
2024/03/02 06:12:43;;;;;;;100.53;35.03;;;;;;;3.34;100.00;95613.41;5005866;28;20076;-71
2024/03/02 06:15:09;;;;;;;134.20;32.55;;;;;;;3.32;100.00;95613.75;5007415;28;20105;-71
2024/03/02 06:17:37;;;;;;;224.82;36.42;;;;;;;3.28;100.00;95617.47;5014685;28;20037;-71
2024/03/02 06:20:03;;;;;;;99.80;34.67;;;;;;;3.27;100.00;95618.63;5002147;28;20516;-70
2024/03/02 06:22:28;;;;;;;87.45;33.88;;;;;;;3.28;100.00;95628.31;5006310;28;20044;-72
2024/03/02 06:24:53;;;;;;;120.38;33.33;;;;;;;3.37;100.00;95623.53;5006647;28;20088;-72
2024/03/02 06:27:19;;;;;;;111.32;34.97;;;;;;;3.38;100.00;95631.28;5011898;28;20046;-70
2024/03/02 06:29:45;;;;;;;78.22;34.55;;;;;;;3.56;100.00;95628.28;5008157;28;20045;-72
2024/03/02 06:32:10;;;;;;;229.15;34.22;;;;;;;3.64;100.00;95632.75;5003533;28;20397;-72
2024/03/02 06:34:36;;;;;;;208.35;34.72;;;;;;;3.42;100.00;95631.38;5008227;28;20488;-72
2024/03/02 06:37:02;;;;;;;153.98;35.85;;;;;;;3.47;100.00;95633.84;5012253;28;20034;-71
2024/03/02 06:39:27;;;;;;;133.98;35.03;;;;;;;3.50;100.00;95635.88;5005013;28;20049;-72
2024/03/02 06:41:53;;;;;;;170.05;34.95;;;;;;;3.58;100.00;95639.53;5006850;28;20050;-72
2024/03/02 06:44:18;;;;;;;230.75;43.30;;;;;;;3.52;100.00;95632.81;5001920;28;20107;-72
2024/03/02 06:46:43;;;;;;;217.55;37.35;;;;;;;3.40;100.00;95636.38;5006809;28;20057;-70
2024/03/02 06:49:10;;;;;;;86.63;36.30;;;;;;;3.45;100.00;95636.91;5001461;28;20029;-72
2024/03/02 06:51:36;;;;;;;175.98;39.35;;;;;;;3.53;100.00;95637.91;5002844;28;20115;-70
2024/03/02 06:54:02;;;;;;;106.50;37.83;;;;;;;3.73;100.00;95640.72;5001710;28;20493;-71
2024/03/02 06:56:27;;;;;;;128.38;36.15;;;;;;;3.66;100.00;95640.53;5001611;28;20129;-72
2024/03/02 06:58:52;;;;;;;96.82;38.00;;;;;;;3.76;100.00;95635.41;5019542;28;20050;-71
2024/03/02 07:01:18;;;;;;;158.30;36.30;;;;;;;3.75;100.00;95630.31;5001440;28;20044;-72
2024/03/02 07:03:43;;;;;;;185.00;36.08;;;;;;;3.60;100.00;95631.84;4995433;28;20404;-72
2024/03/02 07:06:09;;;;;;;287.05;41.45;;;;;;;3.59;100.00;95628.38;4996862;28;20072;-71
2024/03/02 07:08:34;;;;;;;113.35;35.42;;;;;;;3.65;100.00;95634.31;5001550;28;20044;-71
2024/03/02 07:11:00;;;;;;;177.50;40.03;;;;;;;3.71;100.00;95637.56;5002737;28;20041;-71
2024/03/02 07:13:26;;;;;;;134.30;38.55;;;;;;;3.84;100.00;95639.06;4999143;28;20100;-71
2024/03/02 07:18:40;;;;;;;199.63;46.83;;;;;;;3.89;100.00;95643.41;5020442;28;20479;-71
2024/03/02 07:21:07;;;;;;;201.95;37.53;;;;;;;3.64;100.00;95638.94;4999358;28;20087;-71
2024/03/02 07:23:32;;;;;;;172.77;48.08;;;;;;;3.60;100.00;95635.38;5004082;28;20125;-71
2024/03/02 07:25:59;;;;;;;151.57;40.17;;;;;;;3.72;100.00;95636.44;5002147;28;20130;-72
2024/03/02 07:28:26;;;;;;;185.13;36.72;;;;;;;3.67;100.00;95640.16;4997069;28;20045;-71
2024/03/02 07:30:59;;;;;;;89.93;36.85;;;;;;;3.85;100.00;95639.84;5001096;28;20535;-70
2024/03/02 07:33:24;;;;;;;104.72;44.10;;;;;;;3.95;100.00;95637.41;4988489;28;20057;-70
2024/03/02 07:35:49;;;;;;;112.53;37.20;;;;;;;4.08;100.00;95632.69;5006909;28;20103;-70
2024/03/02 07:38:15;;;;;;;148.90;35.80;;;;;;;3.92;100.00;95629.97;4998234;28;20034;-70
2024/03/02 07:40:40;;;;;;;141.10;38.10;;;;;;;3.87;100.00;95640.28;5000578;28;20041;-69
2024/03/02 07:43:06;;;;;;;157.90;41.25;;;;;;;3.80;100.00;95633.56;4996768;28;20064;-70
2024/03/02 07:45:31;;;;;;;133.95;36.85;;;;;;;3.96;100.00;95633.56;5000624;28;20564;-70
2024/03/02 07:47:57;;;;;;;72.13;32.95;;;;;;;4.18;100.00;95634.84;5000627;28;20049;-70
2024/03/02 07:50:22;;;;;;;110.07;36.38;;;;;;;4.34;100.00;95639.47;4994653;28;20543;-70
2024/03/02 07:52:49;;;;;;;117.78;35.03;;;;;;;4.14;100.00;95631.28;5001381;28;20038;-71
2024/03/02 07:55:14;;;;;;;92.82;34.72;;;;;;;4.15;100.00;95640.19;4997894;28;20034;-70
2024/03/02 07:57:40;;;;;;;115.32;36.13;;;;;;;4.08;100.00;95632.69;5002361;28;20042;-71
2024/03/02 08:00:06;;;;;;;117.75;35.20;;;;;;;3.88;100.00;95631.81;4996452;28;20476;-71
2024/03/02 08:02:31;;;;;;;166.13;35.47;;;;;;;3.76;100.00;95638.09;5003063;28;20060;-70
2024/03/02 08:04:57;;;;;;;118.50;42.35;;;;;;;3.75;100.00;95630.31;5003600;28;20034;-70
2024/03/02 08:07:22;;;;;;;113.60;37.60;;;;;;;3.79;100.00;95625.78;4997576;28;20038;-70
2024/03/02 08:09:48;;;;;;;130.70;37.33;;;;;;;3.82;100.00;95622.38;4999537;28;20054;-70
2024/03/02 08:12:13;;;;;;;105.35;37.78;;;;;;;3.88;100.00;95628.31;4997277;28;20455;-69
2024/03/02 08:14:40;;;;;;;119.68;42.30;;;;;;;4.05;100.00;95619.03;5000993;28;20049;-71
2024/03/02 08:17:09;;;;;;;111.78;36.40;;;;;;;4.00;100.00;95618.19;4997870;28;20314;-71
2024/03/02 08:19:35;;;;;;;108.63;40.58;;;;;;;4.02;100.00;95618.59;4990817;28;20046;-71
2024/03/02 08:22:00;;;;;;;104.30;39.42;;;;;;;4.24;100.00;95615.63;4981982;28;20061;-70
2024/03/02 08:24:26;;;;;;;96.72;41.97;;;;;;;4.14;100.00;95611.50;5021469;28;20046;-71
2024/03/02 08:26:51;;;;;;;91.55;36.58;;;;;;;4.16;100.00;95617.38;5016868;28;20043;-71
2024/03/02 08:29:17;;;;;;;89.28;35.70;;;;;;;4.37;100.00;95617.09;4995364;28;20133;-70
2024/03/02 08:31:42;;;;;;;88.28;37.13;;;;;;;4.35;100.00;95603.09;5001352;28;20070;-71
2024/03/02 08:34:07;;;;;;;80.28;34.95;;;;;;;4.48;100.00;95607.25;4996806;28;20038;-70
2024/03/02 08:36:33;;;;;;;81.15;34.85;;;;;;;4.53;100.00;95604.28;5001041;28;20416;-70
2024/03/02 08:38:58;;;;;;;74.85;35.90;;;;;;;4.64;100.00;95598.31;5002108;28;20041;-70
2024/03/02 08:41:24;;;;;;;74.88;35.60;;;;;;;4.62;100.00;95606.78;4996770;28;20672;-71
2024/03/02 08:43:49;;;;;;;74.32;31.45;;;;;;;5.02;100.00;95600.25;5000483;28;20049;-71
2024/03/02 08:46:15;;;;;;;73.38;34.72;;;;;;;4.76;100.00;95600.88;4988018;28;20038;-69
2024/03/02 08:48:40;;;;;;;71.57;34.53;;;;;;;4.89;100.00;95606.97;5000943;28;20475;-71
2024/03/02 08:51:07;;;;;;;68.68;36.20;;;;;;;4.95;100.00;95597.38;4995847;28;20766;-69
2024/03/02 08:53:33;;;;;;;57.95;28.95;;;;;;;5.60;100.00;95588.56;5000209;28;20070;-71
2024/03/02 08:55:58;;;;;;;54.67;29.15;;;;;;;5.91;100.00;95590.22;5000699;28;20129;-72
2024/03/02 08:58:24;;;;;;;50.30;27.30;;;;;;;5.77;100.00;95578.34;4995844;28;20058;-71
2024/03/02 09:00:49;;;;;;;41.75;25.58;;;;;;;5.62;100.00;95567.25;4999050;28;20552;-72
2024/03/02 09:03:16;;;;;;;41.35;24.35;;;;;;;5.41;100.00;95558.72;5010569;28;20046;-71
2024/03/02 09:05:42;;;;;;;38.65;24.80;;;;;;;5.25;100.00;95567.72;5000409;28;20069;-72
2024/03/02 09:08:08;;;;;;;36.17;21.65;;;;;;;5.48;100.00;95583.28;4995448;28;20104;-72
2024/03/02 09:10:33;;;;;;;31.83;19.17;;;;;;;5.83;100.00;95574.16;4996963;28;20064;-71
2024/03/02 09:12:59;;;;;;;46.97;26.90;;;;;;;6.09;100.00;95571.53;4999947;28;20041;-71
2024/03/02 09:15:25;;;;;;;35.47;19.88;;;;;;;6.26;100.00;95575.66;4995310;28;20103;-72
2024/03/02 09:17:50;;;;;;;36.53;22.45;;;;;;;6.54;100.00;95569.06;5005670;28;20487;-72
2024/03/02 09:20:16;;;;;;;30.63;18.70;;;;;;;5.91;100.00;95567.72;5002556;28;20042;-71
2024/03/02 09:22:42;;;;;;;29.13;16.63;;;;;;;6.51;100.00;95570.56;5000157;28;20564;-72
2024/03/02 09:25:08;;;;;;;25.52;16.83;;;;;;;6.88;100.00;95561.72;4995055;28;20038;-70
2024/03/02 09:27:37;;;;;;;24.08;15.93;;;;;;;7.34;100.00;95557.19;5000667;28;20404;-70
2024/03/02 09:30:13;;;;;;;24.97;15.50;;;;;;;7.79;100.00;95553.31;4991443;28;20141;-70
2024/03/02 09:32:39;;;;;;;23.23;14.68;;;;;;;8.19;100.00;95537.25;5003360;28;20050;-71
2024/03/02 09:35:05;;;;;;;19.65;13.35;;;;;;;8.49;100.00;95541.78;4991385;28;20037;-71
2024/03/02 09:37:30;;;;;;;23.90;15.23;;;;;;;7.65;100.00;95539.56;5010485;28;20045;-71
2024/03/02 09:39:56;;;;;;;24.02;15.23;;;;;;;8.27;100.00;95527.19;5020627;28;20081;-72
2024/03/02 09:42:22;;;;;;;24.92;15.40;;;;;;;8.39;100.00;95524.94;5012950;28;20558;-71
2024/03/02 09:44:48;;;;;;;25.92;15.80;;;;;;;10.00;100.00;95523.84;5019411;28;20647;-71
2024/03/02 09:47:13;;;;;;;18.45;12.77;;;;;;;10.35;100.00;95521.50;5011478;28;20037;-72
2024/03/02 09:49:40;;;;;;;18.80;11.98;;;;;;;11.02;100.00;95525.19;4986692;28;20069;-72
2024/03/02 09:52:06;;;;;;;17.05;11.55;;;;;;;12.09;100.00;95525.75;4989544;28;20086;-71
2024/03/02 09:54:32;;;;;;;24.67;13.27;;;;;;;12.00;100.00;95524.22;5008962;28;20045;-71
2024/03/02 09:56:57;;;;;;;17.02;11.00;;;;;;;12.13;100.00;95521.78;5007857;28;20049;-72
2024/03/02 09:59:23;;;;;;;20.13;11.02;;;;;;;12.70;100.00;95514.19;4998214;28;20096;-72
2024/03/02 10:02:02;;;;;;;28.75;17.10;;;;;;;11.01;100.00;95505.25;5003209;28;20038;-71
2024/03/02 10:04:29;;;;;;;18.88;13.05;;;;;;;11.33;100.00;95509.00;5003705;28;20052;-72
2024/03/02 10:07:17;;;;;;;17.08;12.13;;;;;;;12.49;100.00;95496.72;5018282;28;20096;-72
2024/03/02 10:09:47;;;;;;;12.07;9.07;;;;;;;12.82;100.00;95499.91;5007203;28;20044;-71
2024/03/02 10:12:15;;;;;;;17.75;13.38;;;;;;;11.44;100.00;95487.78;5002343;28;20096;-71
2024/03/02 10:14:42;;;;;;;14.20;10.38;;;;;;;11.39;100.00;95485.47;5004037;28;20457;-71
2024/03/02 10:17:10;;;;;;;16.08;12.60;;;;;;;10.49;100.00;95480.41;4999323;28;20121;-72
2024/03/02 10:19:36;;;;;;;13.93;10.57;;;;;;;10.62;100.00;95470.56;5010921;28;20057;-72
2024/03/02 10:22:06;;;;;;;10.82;8.20;;;;;;;11.22;100.00;95476.97;4999939;28;20107;-72
2024/03/02 10:24:46;;;;;;;12.18;8.30;;;;;;;12.67;100.00;95466.31;5002732;28;20091;-71
2024/03/02 10:27:22;;;;;;;14.13;9.88;;;;;;;13.13;100.00;95455.94;4999148;28;20030;-72
2024/03/02 10:29:48;;;;;;;10.43;7.45;;;;;;;12.66;100.00;95466.72;5002762;28;20513;-71
2024/03/02 10:32:15;;;;;;;13.23;7.70;;;;;;;12.97;100.00;95467.53;4998973;28;20038;-71
2024/03/02 10:34:42;;;;;;;9.85;7.43;;;;;;;12.13;100.00;95466.88;5006651;28;20042;-72
2024/03/02 10:37:08;;;;;;;10.10;7.32;;;;;;;11.34;100.00;95470.22;4995650;28;20469;-72
2024/03/02 10:39:39;;;;;;;10.65;6.95;;;;;;;11.95;100.00;95461.56;5003594;28;20038;-72
2024/03/02 10:42:06;;;;;;;7.68;5.70;;;;;;;11.89;100.00;95452.19;4997891;28;20037;-69
2024/03/02 10:44:32;;;;;;;16.75;10.55;;;;;;;11.72;100.00;95445.69;5002455;28;20042;-71
2024/03/02 10:47:03;;;;;;;8.00;5.90;;;;;;;12.63;100.00;95433.41;5002536;28;20149;-72
2024/03/02 10:49:31;;;;;;;7.15;5.50;;;;;;;13.95;100.00;95440.16;5010066;28;20200;-72
2024/03/02 10:52:00;;;;;;;6.22;4.55;;;;;;;11.93;100.00;95433.75;5002068;28;20505;-70
2024/03/02 10:54:26;;;;;;;6.65;4.50;;;;;;;11.67;100.00;95426.91;4999862;28;20050;-72
2024/03/02 10:56:54;;;;;;;5.18;3.97;;;;;;;12.70;100.00;95431.78;5001628;28;20033;-71
2024/03/02 10:59:25;;;;;;;6.40;3.78;;;;;;;13.77;100.00;95427.50;4997733;28;20045;-72
2024/03/02 11:01:56;;;;;;;10.27;6.50;;;;;;;13.95;100.00;95429.16;5002451;28;20042;-72
2024/03/02 11:04:24;;;;;;;7.45;4.68;;;;;;;12.57;100.00;95424.06;4998127;28;20053;-71
2024/03/02 11:06:51;;;;;;;6.55;4.65;;;;;;;11.76;100.00;95412.72;5002003;28;20053;-71
2024/03/02 11:09:19;;;;;;;8.00;5.38;;;;;;;13.05;100.00;95416.00;4994194;28;20204;-71
2024/03/02 11:11:54;;;;;;;7.68;5.60;;;;;;;14.72;100.00;95413.59;5001861;28;20125;-71
2024/03/02 11:14:23;;;;;;;7.15;4.50;;;;;;;14.37;95.66;95413.09;4996268;28;20493;-71
2024/03/02 11:16:50;;;;;;;5.80;4.35;;;;;;;13.58;100.00;95408.94;5001488;28;20216;-71
2024/03/02 11:19:16;;;;;;;7.55;4.43;;;;;;;15.22;93.44;95409.00;5015524;28;20038;-71